»·PEaware :: DAL1273 KSLC-KSBA

DAL1273 :: KSLC-KSBA

FLIGHT INFORMATION

Flight Status: Arrived
Operator:
Delta Air Lines
More flights by this operator :: More flights under this callsign
Pilot: James B. (30262)
Aircraft: AIRBUS A319
(A319)
More flights by this aircraft type
Origin: KSLC Salt Lake City Intl
United States
Destination: KSBA Santa Barbara Mun
United States
More flights between these airports :: More routes between these airports
Route: ZIONZ1 BCE J60 HEC PITBL1
File this flight plan on PilotEdge
Remarks:
Altitude:
(Current/Filed)
30,000ft
Speed:
(Current/Filed)
473kts
Departed: 27-Jul-20 07:06 PM
Arrived: 27-Jul-20 08:47 PM
Distance/Time
Traveled:
534nm/1:41
Distance/Time
To Go:
Arrived

Flight Plot

Page will automatically refresh every two minutes.


Map Options




Map Legend


Flown Route
Filed Route
Departure Airport
Arrival Airport
Navaid (VOR, NDB)
Fix

Horizontal Profiles

Position Reports

Time Latitude Longitude Heading Altitude Ground
Speed
27-Jul-20 18:22 40.788095 -111.980833 284 4225ft 0kts
27-Jul-20 18:23 40.788095 -111.980833 284 4225ft 0kts
27-Jul-20 18:24 40.788095 -111.980833 284 4225ft 0kts
27-Jul-20 18:25 40.788095 -111.980833 284 4225ft 0kts
27-Jul-20 18:26 40.788095 -111.980833 284 4225ft 0kts
27-Jul-20 18:27 40.788095 -111.980833 284 4225ft 0kts
27-Jul-20 18:28 40.788095 -111.980833 284 4225ft 0kts
27-Jul-20 18:29 40.788095 -111.980833 284 4225ft 0kts
27-Jul-20 18:30 40.788095 -111.980833 284 4225ft 0kts
27-Jul-20 18:31 40.788095 -111.980833 284 4225ft 0kts
27-Jul-20 18:32 40.788095 -111.980833 284 4225ft 0kts
27-Jul-20 18:33 40.788095 -111.980833 284 4225ft 0kts
27-Jul-20 18:34 40.788095 -111.980833 284 4225ft 0kts
27-Jul-20 18:35 40.788095 -111.980833 284 4225ft 0kts
27-Jul-20 18:36 40.788095 -111.980833 284 4225ft 0kts
27-Jul-20 18:37 40.788095 -111.980833 284 4225ft 0kts
27-Jul-20 18:38 40.788095 -111.980833 284 4225ft 0kts
27-Jul-20 18:39 40.788095 -111.980833 284 4225ft 0kts
27-Jul-20 18:40 40.788095 -111.980833 284 4225ft 0kts
27-Jul-20 18:41 40.788095 -111.980833 284 4225ft 0kts
27-Jul-20 18:42 40.788095 -111.980833 284 4225ft 0kts
27-Jul-20 18:43 40.788095 -111.980833 284 4225ft 0kts
27-Jul-20 18:44 40.788095 -111.980833 284 4225ft 0kts
27-Jul-20 18:45 40.788095 -111.980833 284 4225ft 0kts
27-Jul-20 18:46 40.788095 -111.980833 284 4225ft 0kts
27-Jul-20 18:47 40.788095 -111.980833 284 4225ft 0kts
27-Jul-20 18:48 40.788095 -111.980833 284 4225ft 0kts
27-Jul-20 18:49 40.788095 -111.980833 284 4225ft 0kts
27-Jul-20 18:50 40.788095 -111.980833 284 4225ft 0kts
27-Jul-20 18:51 40.787989 -111.980298 284 4225ft 2kts
27-Jul-20 18:52 40.787594 -111.979789 359 4226ft 2kts
27-Jul-20 18:53 40.787481 -111.979804 8 4226ft 0kts
27-Jul-20 18:54 40.787481 -111.979804 8 4226ft 0kts
27-Jul-20 18:55 40.788295 -111.979651 7 4225ft 7kts
27-Jul-20 18:56 40.788604 -111.979599 7 4225ft 0kts
27-Jul-20 18:57 40.790283 -111.977613 79 4224ft 12kts
27-Jul-20 18:58 40.794649 -111.977622 355 4225ft 20kts
27-Jul-20 18:59 40.800508 -111.978301 354 4229ft 20kts
27-Jul-20 19:00 40.806405 -111.978994 355 4228ft 20kts
27-Jul-20 19:01 40.807418 -111.978598 83 4228ft 0kts
27-Jul-20 19:02 40.807418 -111.978598 83 4228ft 0kts
27-Jul-20 19:03 40.807418 -111.978598 83 4228ft 0kts
27-Jul-20 19:04 40.805646 -111.976732 173 4230ft 19kts
27-Jul-20 19:05 40.769381 -111.973657 171 5090ft 187kts
27-Jul-20 19:06 40.717841 -111.964256 168 7403ft 200kts
27-Jul-20 19:07 40.656907 -111.956917 188 9092ft 249kts
27-Jul-20 19:08 40.579140 -111.954411 178 10700ft 314kts
27-Jul-20 19:09 40.482034 -111.952096 178 12377ft 374kts
27-Jul-20 19:10 40.376588 -111.945847 176 15194ft 390kts
27-Jul-20 19:11 40.266671 -111.940560 182 17709ft 403kts
27-Jul-20 19:12 40.154087 -111.956475 187 19986ft 416kts
27-Jul-20 19:13 40.037898 -111.973828 186 22097ft 427kts
27-Jul-20 19:14 39.918260 -111.991236 186 23981ft 438kts
27-Jul-20 19:15 39.796317 -112.008850 186 25659ft 447kts
27-Jul-20 19:16 39.671783 -112.026900 187 27151ft 455kts
27-Jul-20 19:17 39.548543 -112.044732 187 29312ft 441kts
27-Jul-20 19:18 39.427731 -112.062129 187 30153ft 435kts
27-Jul-20 19:19 39.308138 -112.079097 187 30150ft 434kts
27-Jul-20 19:20 39.188196 -112.096127 187 30146ft 435kts
27-Jul-20 19:21 39.067795 -112.113132 187 30146ft 435kts
27-Jul-20 19:22 38.948067 -112.129948 186 30146ft 435kts
27-Jul-20 19:23 38.827517 -112.146797 186 30146ft 436kts
27-Jul-20 19:24 38.706921 -112.163600 186 30146ft 436kts
27-Jul-20 19:25 38.586579 -112.180340 186 30185ft 436kts
27-Jul-20 19:26 38.466464 -112.196996 186 30236ft 436kts
27-Jul-20 19:27 38.345967 -112.213651 186 30243ft 436kts
27-Jul-20 19:28 38.225846 -112.230195 186 30301ft 436kts
27-Jul-20 19:29 38.105701 -112.246707 186 30352ft 435kts
27-Jul-20 19:30 37.985359 -112.263183 186 30363ft 435kts
27-Jul-20 19:31 37.865535 -112.279537 186 30366ft 435kts
27-Jul-20 19:32 37.745148 -112.296661 191 30361ft 435kts
27-Jul-20 19:33 37.643638 -112.374380 228 30371ft 440kts
27-Jul-20 19:35 37.566922 -112.494432 229 30363ft 439kts
27-Jul-20 19:36 37.490575 -112.613799 229 30299ft 438kts
27-Jul-20 19:37 37.414382 -112.732575 229 30199ft 438kts
27-Jul-20 19:38 37.337936 -112.851166 229 30163ft 437kts
27-Jul-20 19:39 37.261298 -112.969431 229 30148ft 437kts
27-Jul-20 19:40 37.184533 -113.087453 229 30129ft 436kts
27-Jul-20 19:41 37.107938 -113.204779 229 30065ft 436kts
27-Jul-20 19:42 37.031060 -113.322134 229 29978ft 435kts
27-Jul-20 19:43 36.954285 -113.438914 230 29942ft 436kts
27-Jul-20 19:44 36.877160 -113.555632 230 29937ft 435kts
27-Jul-20 19:45 36.800138 -113.671419 230 29935ft 434kts
27-Jul-20 19:46 36.723272 -113.787474 230 29935ft 434kts
27-Jul-20 19:47 36.646489 -113.902726 230 29935ft 434kts
27-Jul-20 19:48 36.569317 -114.018076 230 29934ft 433kts
27-Jul-20 19:49 36.492336 -114.132785 231 29924ft 432kts
27-Jul-20 19:50 36.415441 -114.246980 231 29897ft 433kts
27-Jul-20 19:51 36.338213 -114.361273 231 29879ft 433kts
27-Jul-20 19:51 36.273691 -114.456449 231 29876ft 433kts
27-Jul-20 19:53 36.183106 -114.589634 231 29875ft 433kts
27-Jul-20 19:54 36.105645 -114.703308 231 29876ft 434kts
27-Jul-20 19:54 36.040798 -114.798164 231 29876ft 434kts
27-Jul-20 19:55 35.961601 -114.911067 229 29886ft 434kts
27-Jul-20 19:57 35.867867 -115.038014 230 29899ft 434kts
27-Jul-20 19:57 35.800162 -115.129407 230 29900ft 435kts
27-Jul-20 19:58 35.718790 -115.239412 230 29909ft 435kts
27-Jul-20 19:59 35.637442 -115.349154 230 29913ft 435kts
27-Jul-20 20:00 35.555898 -115.458799 230 29913ft 435kts
27-Jul-20 20:01 35.474180 -115.568338 230 29910ft 435kts
27-Jul-20 20:02 35.392587 -115.677435 230 29887ft 436kts
27-Jul-20 20:03 35.310600 -115.786994 230 29859ft 436kts
27-Jul-20 20:04 35.228502 -115.896018 230 29851ft 436kts
27-Jul-20 20:05 35.146688 -116.004276 230 29905ft 436kts
27-Jul-20 20:06 35.064586 -116.112529 230 29920ft 435kts
27-Jul-20 20:07 34.982076 -116.221016 230 29925ft 436kts
27-Jul-20 20:08 34.899555 -116.329128 230 29925ft 436kts
27-Jul-20 20:09 34.819668 -116.439046 239 29939ft 431kts
27-Jul-20 20:10 34.780155 -116.574310 261 29984ft 425kts
27-Jul-20 20:11 34.759315 -116.715719 260 30012ft 425kts
27-Jul-20 20:12 34.736893 -116.856366 258 30032ft 424kts
27-Jul-20 20:13 34.712545 -116.996474 259 30045ft 424kts
27-Jul-20 20:14 34.689198 -117.136995 259 30029ft 423kts
27-Jul-20 20:15 34.665807 -117.277890 259 30020ft 426kts
27-Jul-20 20:16 34.642238 -117.418895 259 30018ft 426kts
27-Jul-20 20:17 34.618546 -117.559660 259 30018ft 426kts
27-Jul-20 20:18 34.594751 -117.700132 258 30018ft 426kts
27-Jul-20 20:19 34.570760 -117.840894 258 30017ft 426kts
27-Jul-20 20:20 34.546537 -117.981752 258 29996ft 427kts
27-Jul-20 20:21 34.522107 -118.122759 258 29990ft 426kts
27-Jul-20 20:22 34.497610 -118.263141 258 29544ft 424kts
27-Jul-20 20:23 34.475838 -118.402511 271 26605ft 424kts
27-Jul-20 20:24 34.481701 -118.540178 253 24406ft 398kts
27-Jul-20 20:25 34.454311 -118.661259 258 23015ft 367kts
27-Jul-20 20:26 34.433380 -118.780869 258 20975ft 359kts
27-Jul-20 20:27 34.413731 -118.897462 258 19026ft 350kts
27-Jul-20 20:28 34.394460 -119.011081 257 17102ft 341kts
27-Jul-20 20:29 34.375638 -119.122163 258 15171ft 333kts
27-Jul-20 20:30 34.357369 -119.230803 258 13235ft 327kts
27-Jul-20 20:31 34.339223 -119.337705 258 11274ft 317kts
27-Jul-20 20:32 34.322865 -119.434135 257 9840ft 277kts
27-Jul-20 20:33 34.310983 -119.524721 275 7783ft 271kts
27-Jul-20 20:34 34.328598 -119.608368 292 6512ft 238kts
27-Jul-20 20:35 34.354918 -119.678342 305 5181ft 226kts
27-Jul-20 20:36 34.407804 -119.715610 306 3719ft 218kts
27-Jul-20 20:37 34.427039 -119.786703 279 1718ft 220kts
27-Jul-20 20:38 34.425802 -119.857866 270 2493ft 246kts
27-Jul-20 20:39 34.423563 -119.936737 267 3011ft 203kts
27-Jul-20 20:40 34.391043 -119.948499 98 2901ft 149kts
27-Jul-20 20:41 34.395036 -119.885644 83 3546ft 213kts
27-Jul-20 20:42 34.400564 -119.813724 83 1993ft 213kts
27-Jul-20 20:43 34.412142 -119.749690 19 1729ft 158kts
27-Jul-20 20:44 34.428446 -119.786384 270 1247ft 143kts
27-Jul-20 20:45 34.427961 -119.833389 268 73ft 137kts
27-Jul-20 20:46 34.427052 -119.851832 178 19ft 1kts
27-Jul-20 20:47 34.426496 -119.849264 87 19ft 14kts
27-Jul-20 20:48 34.426589 -119.844236 88 19ft 17kts
27-Jul-20 20:49 34.426679 -119.838545 105 16ft 9kts
27-Jul-20 20:50 34.425130 -119.837233 111 16ft 0kts
27-Jul-20 20:51 34.425130 -119.837233 111 16ft 0kts
27-Jul-20 20:52 34.425130 -119.837233 111 16ft 0kts

Navigation Log

Ident Type
Flight plan parsing failed, navigation log unavailable